sensor_id;sensor_type;location;lat;lon;timestamp;P1;durP1;ratioP1;P2;durP2;ratioP2
51525;SDS011;37611;51.794;21.590;2022-11-12T00:01:27;19.40;;;14.00;;
51525;SDS011;37611;51.794;21.590;2022-11-12T00:05:29;18.00;;;13.20;;
51525;SDS011;37611;51.794;21.590;2022-11-12T00:09:32;18.20;;;13.40;;
51525;SDS011;37611;51.794;21.590;2022-11-12T00:13:33;22.80;;;13.60;;
51525;SDS011;37611;51.794;21.590;2022-11-12T00:17:35;16.40;;;13.20;;
51525;SDS011;37611;51.794;21.590;2022-11-12T00:21:37;26.40;;;14.70;;
51525;SDS011;37611;51.794;21.590;2022-11-12T00:25:39;15.30;;;13.40;;
51525;SDS011;37611;51.794;21.590;2022-11-12T00:29:41;16.10;;;13.20;;
51525;SDS011;37611;51.794;21.590;2022-11-12T00:33:42;19.80;;;14.20;;
51525;SDS011;37611;51.794;21.590;2022-11-12T00:37:44;23.60;;;13.30;;
51525;SDS011;37611;51.794;21.590;2022-11-12T00:41:46;19.40;;;13.70;;
51525;SDS011;37611;51.794;21.590;2022-11-12T00:45:48;18.50;;;14.40;;
51525;SDS011;37611;51.794;21.590;2022-11-12T00:49:50;20.40;;;13.30;;
51525;SDS011;37611;51.794;21.590;2022-11-12T00:53:51;16.50;;;14.80;;
51525;SDS011;37611;51.794;21.590;2022-11-12T00:57:53;20.70;;;14.70;;
51525;SDS011;37611;51.794;21.590;2022-11-12T01:01:55;16.60;;;13.20;;
51525;SDS011;37611;51.794;21.590;2022-11-12T01:06:07;19.60;;;14.60;;
51525;SDS011;37611;51.794;21.590;2022-11-12T01:10:14;17.50;;;13.80;;
51525;SDS011;37611;51.794;21.590;2022-11-12T01:14:16;16.20;;;13.90;;
51525;SDS011;37611;51.794;21.590;2022-11-12T01:18:18;20.10;;;13.30;;
51525;SDS011;37611;51.794;21.590;2022-11-12T01:22:20;17.40;;;13.40;;
51525;SDS011;37611;51.794;21.590;2022-11-12T01:26:21;17.30;;;13.80;;
51525;SDS011;37611;51.794;21.590;2022-11-12T01:30:24;16.20;;;13.00;;
51525;SDS011;37611;51.794;21.590;2022-11-12T01:34:26;16.60;;;12.80;;
51525;SDS011;37611;51.794;21.590;2022-11-12T01:38:28;19.10;;;14.00;;
51525;SDS011;37611;51.794;21.590;2022-11-12T01:42:30;15.30;;;13.10;;
51525;SDS011;37611;51.794;21.590;2022-11-12T01:46:33;17.10;;;12.60;;
51525;SDS011;37611;51.794;21.590;2022-11-12T01:50:38;21.80;;;13.60;;
51525;SDS011;37611;51.794;21.590;2022-11-12T01:54:41;16.80;;;13.70;;
51525;SDS011;37611;51.794;21.590;2022-11-12T02:02:58;16.20;;;13.50;;
51525;SDS011;37611;51.794;21.590;2022-11-12T02:07:02;14.50;;;12.40;;
51525;SDS011;37611;51.794;21.590;2022-11-12T02:11:13;21.40;;;13.70;;
51525;SDS011;37611;51.794;21.590;2022-11-12T02:15:20;16.80;;;13.20;;
51525;SDS011;37611;51.794;21.590;2022-11-12T02:19:21;16.20;;;12.50;;
51525;SDS011;37611;51.794;21.590;2022-11-12T02:23:23;14.20;;;12.10;;
51525;SDS011;37611;51.794;21.590;2022-11-12T02:27:25;17.40;;;11.90;;
51525;SDS011;37611;51.794;21.590;2022-11-12T02:31:27;16.20;;;12.40;;
51525;SDS011;37611;51.794;21.590;2022-11-12T02:35:30;19.50;;;12.60;;
51525;SDS011;37611;51.794;21.590;2022-11-12T02:39:32;17.90;;;12.40;;
51525;SDS011;37611;51.794;21.590;2022-11-12T02:43:34;15.00;;;12.00;;
51525;SDS011;37611;51.794;21.590;2022-11-12T02:47:37;15.00;;;11.30;;
51525;SDS011;37611;51.794;21.590;2022-11-12T02:51:38;18.20;;;12.50;;
51525;SDS011;37611;51.794;21.590;2022-11-12T02:55:41;16.90;;;11.70;;
51525;SDS011;37611;51.794;21.590;2022-11-12T02:59:43;15.60;;;12.20;;
51525;SDS011;37611;51.794;21.590;2022-11-12T03:03:45;16.90;;;11.70;;
51525;SDS011;37611;51.794;21.590;2022-11-12T03:07:47;14.50;;;11.70;;
51525;SDS011;37611;51.794;21.590;2022-11-12T03:11:49;14.10;;;11.00;;
51525;SDS011;37611;51.794;21.590;2022-11-12T03:15:57;19.20;;;10.90;;
51525;SDS011;37611;51.794;21.590;2022-11-12T03:19:59;14.50;;;11.60;;
51525;SDS011;37611;51.794;21.590;2022-11-12T03:24:01;15.60;;;11.60;;
51525;SDS011;37611;51.794;21.590;2022-11-12T03:28:05;11.80;;;10.30;;
51525;SDS011;37611;51.794;21.590;2022-11-12T03:32:08;15.80;;;10.80;;
51525;SDS011;37611;51.794;21.590;2022-11-12T03:36:10;16.50;;;10.70;;
51525;SDS011;37611;51.794;21.590;2022-11-12T03:40:13;15.00;;;10.60;;
51525;SDS011;37611;51.794;21.590;2022-11-12T03:44:15;14.20;;;9.70;;
51525;SDS011;37611;51.794;21.590;2022-11-12T03:48:17;14.70;;;10.60;;
51525;SDS011;37611;51.794;21.590;2022-11-12T03:52:19;12.40;;;10.00;;
51525;SDS011;37611;51.794;21.590;2022-11-12T03:56:20;14.10;;;10.10;;
51525;SDS011;37611;51.794;21.590;2022-11-12T04:00:23;15.40;;;10.30;;
51525;SDS011;37611;51.794;21.590;2022-11-12T04:04:27;11.10;;;9.90;;
51525;SDS011;37611;51.794;21.590;2022-11-12T04:08:48;12.80;;;10.10;;
51525;SDS011;37611;51.794;21.590;2022-11-12T04:12:50;12.00;;;9.80;;
51525;SDS011;37611;51.794;21.590;2022-11-12T04:17:11;15.30;;;10.50;;
51525;SDS011;37611;51.794;21.590;2022-11-12T04:21:44;12.40;;;9.40;;
51525;SDS011;37611;51.794;21.590;2022-11-12T04:25:55;12.80;;;10.20;;
51525;SDS011;37611;51.794;21.590;2022-11-12T04:30:15;13.50;;;10.30;;
51525;SDS011;37611;51.794;21.590;2022-11-12T04:34:19;13.90;;;10.30;;
51525;SDS011;37611;51.794;21.590;2022-11-12T04:38:29;13.80;;;10.20;;
51525;SDS011;37611;51.794;21.590;2022-11-12T04:42:31;13.00;;;10.20;;
51525;SDS011;37611;51.794;21.590;2022-11-12T04:46:52;13.90;;;10.70;;
51525;SDS011;37611;51.794;21.590;2022-11-12T04:51:01;13.20;;;9.90;;
51525;SDS011;37611;51.794;21.590;2022-11-12T04:55:24;13.10;;;9.10;;
51525;SDS011;37611;51.794;21.590;2022-11-12T04:59:26;12.10;;;10.00;;
51525;SDS011;37611;51.794;21.590;2022-11-12T05:03:28;12.50;;;9.80;;
51525;SDS011;37611;51.794;21.590;2022-11-12T05:07:30;11.50;;;9.50;;
51525;SDS011;37611;51.794;21.590;2022-11-12T05:11:33;12.50;;;9.30;;
51525;SDS011;37611;51.794;21.590;2022-11-12T05:15:35;13.00;;;10.60;;
51525;SDS011;37611;51.794;21.590;2022-11-12T05:19:37;15.90;;;10.30;;
51525;SDS011;37611;51.794;21.590;2022-11-12T05:23:38;20.80;;;17.30;;
51525;SDS011;37611;51.794;21.590;2022-11-12T05:27:40;17.60;;;15.70;;
51525;SDS011;37611;51.794;21.590;2022-11-12T05:31:42;14.80;;;11.20;;
51525;SDS011;37611;51.794;21.590;2022-11-12T05:35:44;13.40;;;9.50;;
51525;SDS011;37611;51.794;21.590;2022-11-12T05:39:45;12.30;;;9.40;;
51525;SDS011;37611;51.794;21.590;2022-11-12T05:43:47;13.30;;;11.20;;
51525;SDS011;37611;51.794;21.590;2022-11-12T05:47:49;12.90;;;9.80;;
51525;SDS011;37611;51.794;21.590;2022-11-12T05:51:51;14.30;;;10.40;;
51525;SDS011;37611;51.794;21.590;2022-11-12T05:55:53;12.80;;;9.20;;
51525;SDS011;37611;51.794;21.590;2022-11-12T05:59:54;11.90;;;9.40;;
51525;SDS011;37611;51.794;21.590;2022-11-12T06:03:56;12.20;;;10.30;;
51525;SDS011;37611;51.794;21.590;2022-11-12T06:07:58;15.10;;;10.00;;
51525;SDS011;37611;51.794;21.590;2022-11-12T06:12:00;11.20;;;8.80;;
51525;SDS011;37611;51.794;21.590;2022-11-12T06:16:02;12.00;;;9.20;;
51525;SDS011;37611;51.794;21.590;2022-11-12T06:20:05;14.20;;;9.90;;
51525;SDS011;37611;51.794;21.590;2022-11-12T06:24:07;13.90;;;8.50;;
51525;SDS011;37611;51.794;21.590;2022-11-12T06:28:09;12.50;;;9.00;;
51525;SDS011;37611;51.794;21.590;2022-11-12T06:32:10;13.00;;;9.30;;
51525;SDS011;37611;51.794;21.590;2022-11-12T06:36:13;13.50;;;10.00;;
51525;SDS011;37611;51.794;21.590;2022-11-12T06:40:18;52.90;;;35.00;;
51525;SDS011;37611;51.794;21.590;2022-11-12T06:44:20;16.90;;;11.40;;
51525;SDS011;37611;51.794;21.590;2022-11-12T06:48:22;17.90;;;12.40;;
51525;SDS011;37611;51.794;21.590;2022-11-12T06:52:23;15.60;;;11.20;;
51525;SDS011;37611;51.794;21.590;2022-11-12T06:56:25;17.40;;;12.10;;
51525;SDS011;37611;51.794;21.590;2022-11-12T07:00:27;19.70;;;11.90;;
51525;SDS011;37611;51.794;21.590;2022-11-12T07:04:29;17.70;;;12.60;;
51525;SDS011;37611;51.794;21.590;2022-11-12T07:08:30;18.30;;;12.50;;
51525;SDS011;37611;51.794;21.590;2022-11-12T07:12:32;20.60;;;14.60;;
51525;SDS011;37611;51.794;21.590;2022-11-12T07:16:34;47.80;;;35.00;;
51525;SDS011;37611;51.794;21.590;2022-11-12T07:20:36;22.80;;;16.30;;
51525;SDS011;37611;51.794;21.590;2022-11-12T07:24:38;20.10;;;14.30;;
51525;SDS011;37611;51.794;21.590;2022-11-12T07:28:39;17.80;;;12.90;;
51525;SDS011;37611;51.794;21.590;2022-11-12T07:32:41;20.70;;;13.80;;
51525;SDS011;37611;51.794;21.590;2022-11-12T07:36:43;22.80;;;14.10;;
51525;SDS011;37611;51.794;21.590;2022-11-12T07:40:45;25.00;;;17.40;;
51525;SDS011;37611;51.794;21.590;2022-11-12T07:44:47;22.10;;;16.90;;
51525;SDS011;37611;51.794;21.590;2022-11-12T07:48:48;21.50;;;16.20;;
51525;SDS011;37611;51.794;21.590;2022-11-12T07:52:51;22.50;;;15.40;;
51525;SDS011;37611;51.794;21.590;2022-11-12T07:56:52;16.90;;;13.90;;
51525;SDS011;37611;51.794;21.590;2022-11-12T08:00:54;25.30;;;16.60;;
51525;SDS011;37611;51.794;21.590;2022-11-12T08:04:56;35.40;;;26.50;;
51525;SDS011;37611;51.794;21.590;2022-11-12T08:08:59;28.60;;;20.40;;
51525;SDS011;37611;51.794;21.590;2022-11-12T08:13:02;19.30;;;13.70;;
51525;SDS011;37611;51.794;21.590;2022-11-12T08:17:04;21.40;;;14.70;;
51525;SDS011;37611;51.794;21.590;2022-11-12T08:21:06;14.30;;;12.00;;
51525;SDS011;37611;51.794;21.590;2022-11-12T08:25:11;15.10;;;11.40;;
51525;SDS011;37611;51.794;21.590;2022-11-12T08:29:13;14.90;;;12.40;;
51525;SDS011;37611;51.794;21.590;2022-11-12T08:33:15;18.40;;;13.40;;
51525;SDS011;37611;51.794;21.590;2022-11-12T08:37:16;19.60;;;12.30;;
51525;SDS011;37611;51.794;21.590;2022-11-12T08:41:18;19.00;;;13.80;;
51525;SDS011;37611;51.794;21.590;2022-11-12T08:45:20;15.60;;;13.30;;
51525;SDS011;37611;51.794;21.590;2022-11-12T08:49:22;43.30;;;33.70;;
51525;SDS011;37611;51.794;21.590;2022-11-12T08:53:23;23.70;;;18.80;;
51525;SDS011;37611;51.794;21.590;2022-11-12T08:57:26;23.50;;;18.70;;
51525;SDS011;37611;51.794;21.590;2022-11-12T09:01:28;21.40;;;17.30;;
51525;SDS011;37611;51.794;21.590;2022-11-12T09:05:29;25.70;;;21.90;;
51525;SDS011;37611;51.794;21.590;2022-11-12T09:09:32;32.80;;;24.30;;
51525;SDS011;37611;51.794;21.590;2022-11-12T09:13:34;37.60;;;24.00;;
51525;SDS011;37611;51.794;21.590;2022-11-12T09:17:36;29.20;;;24.80;;
51525;SDS011;37611;51.794;21.590;2022-11-12T09:21:37;21.60;;;19.00;;
51525;SDS011;37611;51.794;21.590;2022-11-12T09:25:40;24.20;;;20.90;;
51525;SDS011;37611;51.794;21.590;2022-11-12T09:29:42;20.80;;;17.20;;
51525;SDS011;37611;51.794;21.590;2022-11-12T09:33:44;18.70;;;16.70;;
51525;SDS011;37611;51.794;21.590;2022-11-12T09:37:45;18.90;;;16.70;;
51525;SDS011;37611;51.794;21.590;2022-11-12T09:41:47;18.60;;;16.70;;
51525;SDS011;37611;51.794;21.590;2022-11-12T09:45:49;23.60;;;17.90;;
51525;SDS011;37611;51.794;21.590;2022-11-12T09:54:22;25.30;;;21.70;;
51525;SDS011;37611;51.794;21.590;2022-11-12T09:58:24;27.80;;;23.90;;
51525;SDS011;37611;51.794;21.590;2022-11-12T10:02:38;26.60;;;22.80;;
51525;SDS011;37611;51.794;21.590;2022-11-12T10:07:03;24.90;;;21.80;;
51525;SDS011;37611;51.794;21.590;2022-11-12T10:15:41;23.10;;;20.20;;
51525;SDS011;37611;51.794;21.590;2022-11-12T10:20:21;26.30;;;21.30;;
51525;SDS011;37611;51.794;21.590;2022-11-12T10:24:32;27.80;;;23.10;;
51525;SDS011;37611;51.794;21.590;2022-11-12T10:28:44;40.00;;;33.50;;
51525;SDS011;37611;51.794;21.590;2022-11-12T10:32:51;28.70;;;23.20;;
51525;SDS011;37611;51.794;21.590;2022-11-12T10:41:44;33.90;;;27.40;;
51525;SDS011;37611;51.794;21.590;2022-11-12T10:45:47;33.10;;;26.50;;
51525;SDS011;37611;51.794;21.590;2022-11-12T10:54:28;25.50;;;20.70;;
51525;SDS011;37611;51.794;21.590;2022-11-12T10:58:35;33.20;;;25.40;;
51525;SDS011;37611;51.794;21.590;2022-11-12T11:02:44;31.70;;;24.20;;
51525;SDS011;37611;51.794;21.590;2022-11-12T11:11:13;46.90;;;34.10;;
51525;SDS011;37611;51.794;21.590;2022-11-12T11:15:19;30.40;;;24.70;;
51525;SDS011;37611;51.794;21.590;2022-11-12T11:19:26;28.30;;;21.70;;
51525;SDS011;37611;51.794;21.590;2022-11-12T11:23:52;32.30;;;24.80;;
51525;SDS011;37611;51.794;21.590;2022-11-12T11:37:25;27.20;;;23.00;;
51525;SDS011;37611;51.794;21.590;2022-11-12T11:41:30;32.00;;;24.40;;
51525;SDS011;37611;51.794;21.590;2022-11-12T11:50:17;28.40;;;24.60;;
51525;SDS011;37611;51.794;21.590;2022-11-12T11:54:42;30.60;;;23.90;;
51525;SDS011;37611;51.794;21.590;2022-11-12T12:07:53;30.00;;;22.90;;
51525;SDS011;37611;51.794;21.590;2022-11-12T12:16:53;27.50;;;22.70;;
51525;SDS011;37611;51.794;21.590;2022-11-12T12:21:12;27.90;;;21.30;;
51525;SDS011;37611;51.794;21.590;2022-11-12T12:25:25;33.10;;;25.40;;
51525;SDS011;37611;51.794;21.590;2022-11-12T12:29:33;29.70;;;24.20;;
51525;SDS011;37611;51.794;21.590;2022-11-12T12:33:46;31.30;;;24.70;;
51525;SDS011;37611;51.794;21.590;2022-11-12T12:42:13;30.40;;;23.60;;
51525;SDS011;37611;51.794;21.590;2022-11-12T12:46:20;34.90;;;27.80;;
51525;SDS011;37611;51.794;21.590;2022-11-12T12:50:26;117.20;;;88.10;;
51525;SDS011;37611;51.794;21.590;2022-11-12T12:58:44;32.70;;;25.20;;
51525;SDS011;37611;51.794;21.590;2022-11-12T13:02:47;32.70;;;26.60;;
51525;SDS011;37611;51.794;21.590;2022-11-12T13:10:51;183.90;;;120.30;;
51525;SDS011;37611;51.794;21.590;2022-11-12T13:15:07;68.40;;;51.20;;
51525;SDS011;37611;51.794;21.590;2022-11-12T13:19:11;36.50;;;29.20;;
51525;SDS011;37611;51.794;21.590;2022-11-12T13:28:07;33.60;;;25.80;;
51525;SDS011;37611;51.794;21.590;2022-11-12T13:32:26;44.60;;;34.30;;
51525;SDS011;37611;51.794;21.590;2022-11-12T13:36:43;111.40;;;79.40;;
51525;SDS011;37611;51.794;21.590;2022-11-12T13:45:08;43.10;;;31.80;;
51525;SDS011;37611;51.794;21.590;2022-11-12T13:49:13;59.00;;;43.90;;
51525;SDS011;37611;51.794;21.590;2022-11-12T13:53:19;38.20;;;32.10;;
51525;SDS011;37611;51.794;21.590;2022-11-12T13:57:26;37.20;;;27.80;;
51525;SDS011;37611;51.794;21.590;2022-11-12T14:01:30;40.60;;;32.30;;
51525;SDS011;37611;51.794;21.590;2022-11-12T14:05:34;49.80;;;39.50;;
51525;SDS011;37611;51.794;21.590;2022-11-12T14:18:11;42.70;;;31.40;;
51525;SDS011;37611;51.794;21.590;2022-11-12T14:22:16;41.60;;;33.00;;
51525;SDS011;37611;51.794;21.590;2022-11-12T14:26:33;63.70;;;42.80;;
51525;SDS011;37611;51.794;21.590;2022-11-12T14:30:41;102.00;;;63.50;;
51525;SDS011;37611;51.794;21.590;2022-11-12T14:34:45;301.10;;;181.20;;
51525;SDS011;37611;51.794;21.590;2022-11-12T14:38:51;84.40;;;59.10;;
51525;SDS011;37611;51.794;21.590;2022-11-12T14:42:55;63.30;;;51.30;;
51525;SDS011;37611;51.794;21.590;2022-11-12T14:46:57;43.00;;;30.20;;
51525;SDS011;37611;51.794;21.590;2022-11-12T14:51:02;33.60;;;28.80;;
51525;SDS011;37611;51.794;21.590;2022-11-12T14:55:10;140.30;;;98.40;;
51525;SDS011;37611;51.794;21.590;2022-11-12T15:03:19;56.00;;;38.40;;
51525;SDS011;37611;51.794;21.590;2022-11-12T15:11:50;68.00;;;45.50;;
51525;SDS011;37611;51.794;21.590;2022-11-12T15:19:58;35.00;;;31.30;;
51525;SDS011;37611;51.794;21.590;2022-11-12T15:24:13;27.40;;;24.30;;
51525;SDS011;37611;51.794;21.590;2022-11-12T15:28:22;37.40;;;29.20;;
51525;SDS011;37611;51.794;21.590;2022-11-12T15:32:29;32.40;;;25.80;;
51525;SDS011;37611;51.794;21.590;2022-11-12T15:36:33;29.00;;;24.00;;
51525;SDS011;37611;51.794;21.590;2022-11-12T15:40:41;269.50;;;197.80;;
51525;SDS011;37611;51.794;21.590;2022-11-12T15:44:46;92.20;;;82.20;;
51525;SDS011;37611;51.794;21.590;2022-11-12T15:48:48;50.40;;;45.20;;
51525;SDS011;37611;51.794;21.590;2022-11-12T15:52:50;164.00;;;119.80;;
51525;SDS011;37611;51.794;21.590;2022-11-12T15:56:52;65.80;;;48.80;;
51525;SDS011;37611;51.794;21.590;2022-11-12T16:00:53;52.20;;;40.10;;
51525;SDS011;37611;51.794;21.590;2022-11-12T16:04:56;94.20;;;63.60;;
51525;SDS011;37611;51.794;21.590;2022-11-12T16:08:58;161.10;;;110.70;;
51525;SDS011;37611;51.794;21.590;2022-11-12T16:13:00;56.20;;;43.50;;
51525;SDS011;37611;51.794;21.590;2022-11-12T16:17:05;42.00;;;36.50;;
51525;SDS011;37611;51.794;21.590;2022-11-12T16:21:10;51.20;;;43.70;;
51525;SDS011;37611;51.794;21.590;2022-11-12T16:25:12;39.10;;;32.40;;
51525;SDS011;37611;51.794;21.590;2022-11-12T16:29:14;35.20;;;28.90;;
51525;SDS011;37611;51.794;21.590;2022-11-12T16:33:16;143.20;;;99.00;;
51525;SDS011;37611;51.794;21.590;2022-11-12T16:37:18;116.30;;;88.30;;
51525;SDS011;37611;51.794;21.590;2022-11-12T16:41:20;141.70;;;99.40;;
51525;SDS011;37611;51.794;21.590;2022-11-12T16:45:23;134.10;;;91.40;;
51525;SDS011;37611;51.794;21.590;2022-11-12T16:49:32;137.50;;;91.90;;
51525;SDS011;37611;51.794;21.590;2022-11-12T16:53:34;123.70;;;85.60;;
51525;SDS011;37611;51.794;21.590;2022-11-12T16:57:36;83.60;;;61.20;;
51525;SDS011;37611;51.794;21.590;2022-11-12T17:01:38;68.50;;;52.60;;
51525;SDS011;37611;51.794;21.590;2022-11-12T17:05:40;51.80;;;43.00;;
51525;SDS011;37611;51.794;21.590;2022-11-12T17:09:42;45.60;;;37.50;;
51525;SDS011;37611;51.794;21.590;2022-11-12T17:13:44;70.20;;;60.00;;
51525;SDS011;37611;51.794;21.590;2022-11-12T17:17:46;96.60;;;68.90;;
51525;SDS011;37611;51.794;21.590;2022-11-12T17:21:48;40.10;;;32.80;;
51525;SDS011;37611;51.794;21.590;2022-11-12T17:25:58;35.80;;;30.00;;
51525;SDS011;37611;51.794;21.590;2022-11-12T17:30:01;44.00;;;37.40;;
51525;SDS011;37611;51.794;21.590;2022-11-12T17:34:04;48.50;;;39.50;;
51525;SDS011;37611;51.794;21.590;2022-11-12T17:38:07;56.10;;;43.60;;
51525;SDS011;37611;51.794;21.590;2022-11-12T17:42:09;63.50;;;52.70;;
51525;SDS011;37611;51.794;21.590;2022-11-12T17:46:11;63.30;;;50.50;;
51525;SDS011;37611;51.794;21.590;2022-11-12T17:50:15;71.40;;;55.40;;
51525;SDS011;37611;51.794;21.590;2022-11-12T17:54:16;63.40;;;52.40;;
51525;SDS011;37611;51.794;21.590;2022-11-12T17:58:18;86.80;;;62.70;;
51525;SDS011;37611;51.794;21.590;2022-11-12T18:02:20;80.50;;;62.30;;
51525;SDS011;37611;51.794;21.590;2022-11-12T18:10:25;78.10;;;57.90;;
51525;SDS011;37611;51.794;21.590;2022-11-12T18:14:27;72.10;;;53.40;;
51525;SDS011;37611;51.794;21.590;2022-11-12T18:18:28;71.80;;;52.90;;
51525;SDS011;37611;51.794;21.590;2022-11-12T18:22:30;69.60;;;53.90;;
51525;SDS011;37611;51.794;21.590;2022-11-12T18:26:32;63.80;;;52.20;;
51525;SDS011;37611;51.794;21.590;2022-11-12T18:30:34;79.70;;;61.10;;
51525;SDS011;37611;51.794;21.590;2022-11-12T18:34:37;69.60;;;53.10;;
51525;SDS011;37611;51.794;21.590;2022-11-12T18:38:44;62.30;;;47.30;;
51525;SDS011;37611;51.794;21.590;2022-11-12T18:42:48;60.00;;;46.90;;
51525;SDS011;37611;51.794;21.590;2022-11-12T18:46:50;59.40;;;45.90;;
51525;SDS011;37611;51.794;21.590;2022-11-12T18:51:06;50.90;;;41.20;;
51525;SDS011;37611;51.794;21.590;2022-11-12T18:55:09;53.80;;;42.70;;
51525;SDS011;37611;51.794;21.590;2022-11-12T18:59:11;55.50;;;44.10;;
51525;SDS011;37611;51.794;21.590;2022-11-12T19:03:13;62.80;;;51.20;;
51525;SDS011;37611;51.794;21.590;2022-11-12T19:07:15;71.40;;;54.60;;
51525;SDS011;37611;51.794;21.590;2022-11-12T19:11:17;79.10;;;61.70;;
51525;SDS011;37611;51.794;21.590;2022-11-12T19:15:22;72.00;;;58.30;;
51525;SDS011;37611;51.794;21.590;2022-11-12T19:19:23;66.80;;;53.20;;
51525;SDS011;37611;51.794;21.590;2022-11-12T19:23:25;60.50;;;46.80;;
51525;SDS011;37611;51.794;21.590;2022-11-12T19:27:28;61.30;;;48.10;;
51525;SDS011;37611;51.794;21.590;2022-11-12T19:31:30;54.30;;;40.10;;
51525;SDS011;37611;51.794;21.590;2022-11-12T19:35:34;49.50;;;41.10;;
51525;SDS011;37611;51.794;21.590;2022-11-12T19:39:36;49.20;;;40.20;;
51525;SDS011;37611;51.794;21.590;2022-11-12T19:43:38;52.40;;;42.30;;
51525;SDS011;37611;51.794;21.590;2022-11-12T19:47:41;46.10;;;40.70;;
51525;SDS011;37611;51.794;21.590;2022-11-12T19:51:43;50.50;;;42.30;;
51525;SDS011;37611;51.794;21.590;2022-11-12T19:55:45;51.80;;;39.00;;
51525;SDS011;37611;51.794;21.590;2022-11-12T19:59:47;44.70;;;37.80;;
51525;SDS011;37611;51.794;21.590;2022-11-12T20:03:48;47.20;;;38.10;;
51525;SDS011;37611;51.794;21.590;2022-11-12T20:07:50;50.40;;;38.70;;
51525;SDS011;37611;51.794;21.590;2022-11-12T20:11:52;46.80;;;36.60;;
51525;SDS011;37611;51.794;21.590;2022-11-12T20:15:54;46.40;;;37.90;;
51525;SDS011;37611;51.794;21.590;2022-11-12T20:19:56;45.50;;;37.80;;
51525;SDS011;37611;51.794;21.590;2022-11-12T20:23:58;50.70;;;39.90;;
51525;SDS011;37611;51.794;21.590;2022-11-12T20:28:01;54.80;;;42.60;;
51525;SDS011;37611;51.794;21.590;2022-11-12T20:32:03;57.80;;;47.40;;
51525;SDS011;37611;51.794;21.590;2022-11-12T20:36:06;51.70;;;41.00;;
51525;SDS011;37611;51.794;21.590;2022-11-12T20:40:13;49.80;;;41.00;;
51525;SDS011;37611;51.794;21.590;2022-11-12T20:44:14;57.80;;;40.70;;
51525;SDS011;37611;51.794;21.590;2022-11-12T20:48:16;53.70;;;42.20;;
51525;SDS011;37611;51.794;21.590;2022-11-12T20:52:20;49.40;;;38.60;;
51525;SDS011;37611;51.794;21.590;2022-11-12T20:56:22;48.80;;;39.30;;
51525;SDS011;37611;51.794;21.590;2022-11-12T21:00:27;54.00;;;41.20;;
51525;SDS011;37611;51.794;21.590;2022-11-12T21:04:28;48.50;;;38.30;;
51525;SDS011;37611;51.794;21.590;2022-11-12T21:08:30;52.10;;;41.30;;
51525;SDS011;37611;51.794;21.590;2022-11-12T21:12:33;56.50;;;43.10;;
51525;SDS011;37611;51.794;21.590;2022-11-12T21:16:35;56.80;;;43.50;;
51525;SDS011;37611;51.794;21.590;2022-11-12T21:20:37;58.00;;;42.20;;
51525;SDS011;37611;51.794;21.590;2022-11-12T21:24:39;54.20;;;40.70;;
51525;SDS011;37611;51.794;21.590;2022-11-12T21:28:41;52.80;;;40.50;;
51525;SDS011;37611;51.794;21.590;2022-11-12T21:32:48;53.20;;;39.60;;
51525;SDS011;37611;51.794;21.590;2022-11-12T21:36:50;55.70;;;40.60;;
51525;SDS011;37611;51.794;21.590;2022-11-12T21:45:07;61.80;;;43.90;;
51525;SDS011;37611;51.794;21.590;2022-11-12T21:49:10;59.10;;;41.30;;
51525;SDS011;37611;51.794;21.590;2022-11-12T21:53:11;56.30;;;39.30;;
51525;SDS011;37611;51.794;21.590;2022-11-12T21:57:14;55.20;;;41.10;;
51525;SDS011;37611;51.794;21.590;2022-11-12T22:01:20;54.80;;;39.90;;
51525;SDS011;37611;51.794;21.590;2022-11-12T22:09:27;53.80;;;39.90;;
51525;SDS011;37611;51.794;21.590;2022-11-12T22:13:29;50.70;;;39.30;;
51525;SDS011;37611;51.794;21.590;2022-11-12T22:17:32;57.80;;;41.00;;
51525;SDS011;37611;51.794;21.590;2022-11-12T22:21:34;65.20;;;46.40;;
51525;SDS011;37611;51.794;21.590;2022-11-12T22:25:35;64.60;;;48.00;;
51525;SDS011;37611;51.794;21.590;2022-11-12T22:29:37;57.10;;;40.80;;
51525;SDS011;37611;51.794;21.590;2022-11-12T22:33:39;51.90;;;39.30;;
51525;SDS011;37611;51.794;21.590;2022-11-12T22:37:41;48.90;;;38.00;;
51525;SDS011;37611;51.794;21.590;2022-11-12T22:41:43;48.90;;;38.80;;
51525;SDS011;37611;51.794;21.590;2022-11-12T22:45:45;54.80;;;37.90;;
51525;SDS011;37611;51.794;21.590;2022-11-12T22:49:46;52.10;;;38.60;;
51525;SDS011;37611;51.794;21.590;2022-11-12T22:54:02;51.00;;;36.90;;
51525;SDS011;37611;51.794;21.590;2022-11-12T22:58:08;57.20;;;41.00;;
51525;SDS011;37611;51.794;21.590;2022-11-12T23:02:10;52.10;;;36.30;;
51525;SDS011;37611;51.794;21.590;2022-11-12T23:06:12;47.90;;;35.60;;
51525;SDS011;37611;51.794;21.590;2022-11-12T23:10:14;49.30;;;38.00;;
51525;SDS011;37611;51.794;21.590;2022-11-12T23:14:16;51.70;;;39.10;;
51525;SDS011;37611;51.794;21.590;2022-11-12T23:18:18;53.90;;;39.00;;
51525;SDS011;37611;51.794;21.590;2022-11-12T23:22:20;49.90;;;38.50;;
51525;SDS011;37611;51.794;21.590;2022-11-12T23:26:23;53.10;;;38.70;;
51525;SDS011;37611;51.794;21.590;2022-11-12T23:30:26;49.70;;;37.30;;
51525;SDS011;37611;51.794;21.590;2022-11-12T23:34:28;50.50;;;37.50;;
51525;SDS011;37611;51.794;21.590;2022-11-12T23:38:30;48.10;;;37.40;;
51525;SDS011;37611;51.794;21.590;2022-11-12T23:42:33;46.50;;;35.70;;
51525;SDS011;37611;51.794;21.590;2022-11-12T23:46:35;46.50;;;35.10;;
51525;SDS011;37611;51.794;21.590;2022-11-12T23:50:37;46.50;;;34.30;;
51525;SDS011;37611;51.794;21.590;2022-11-12T23:54:38;43.00;;;33.20;;
51525;SDS011;37611;51.794;21.590;2022-11-12T23:58:40;50.20;;;35.30;;
